Airport Name : Dakhla

Other Name : Dakhla

ICAO : GMMH

IATA : VIL

FAA :

Latitude : 23.718294

Longitude : -15.931994

Country : Western Sahara

Local Date and Time : 12/13/2017 8:20:00 PM

 

TAF (Terminal Aerodrome Forecast)

TAF GMMH 131700Z 1318/1424 01026KT 8000 NSC TEMPO 1318/1320 01020G30KT

 

METAR (METeorological Aerodrome Report)

GMMH 132000Z 02016KT 8000 NSC 18/12 Q1019 NOSIG

GMMH 131900Z 02021KT 8000 NSC 18/11 Q1019 NOSIG

GMMH 131800Z 02023KT CAVOK 19/11 Q1019 NOSIG

GMMH 131700Z 02026KT CAVOK 20/11 Q1018 NOSIG